AYPY/POM METAR and TAF weather

Enter ICAO airport designator
Station Type Date Time Source
AYPY METAR 2018/06/25 17:00 UTC NOAA

AYPY 251700Z 11003KT 9999 NSC 23/22 Q1010


Station Type Date Time Source
AYPY Decoded METAR 2018/06/25 17:00 UTC NOAA

Moresby, Papua New Guinea (AYPY) 09-26S 147-13E 49M
Jun 25, 2018 - 01:00 PM EDT / 2018.06.25 1700 UTC
Wind: from the ESE (110 degrees) at 3 MPH (3 KT):0
Visibility: greater than 7 mile(s):0
Temperature: 73 F (23 C)
Dew Point: 71 F (22 C)
Relative Humidity: 94%
Pressure (altimeter): 29.83 in. Hg (1010 hPa)
ob: AYPY 251700Z 11003KT 9999 NSC 23/22 Q1010
cycle: 17

Station Type Date Time Source
AYPY TAF 2018/06/25 18:26 UTC NOAA

TAF AYPY 251330Z 2518/2618 17006KT 9999 BKN035
FM260001 17015KT 9999 SCT018 SCT140
FM260500 16015G26KT 9999 SCT020 SCT150


Example: see airport list